sensor_id;sensor_type;location;lat;lon;timestamp;P1;durP1;ratioP1;P2;durP2;ratioP2
26953;SDS011;14508;50.924;11.600;2022-09-30T00:00:20;6.50;;;3.35;;
26953;SDS011;14508;50.924;11.600;2022-09-30T00:02:47;5.63;;;3.63;;
26953;SDS011;14508;50.924;11.600;2022-09-30T00:05:14;10.07;;;3.58;;
26953;SDS011;14508;50.924;11.600;2022-09-30T00:07:41;7.93;;;3.53;;
26953;SDS011;14508;50.924;11.600;2022-09-30T00:10:08;9.82;;;3.58;;
26953;SDS011;14508;50.924;11.600;2022-09-30T00:12:35;4.53;;;3.10;;
26953;SDS011;14508;50.924;11.600;2022-09-30T00:15:02;7.82;;;3.38;;
26953;SDS011;14508;50.924;11.600;2022-09-30T00:17:30;5.68;;;3.60;;
26953;SDS011;14508;50.924;11.600;2022-09-30T00:19:57;6.60;;;2.97;;
26953;SDS011;14508;50.924;11.600;2022-09-30T00:22:24;3.80;;;2.97;;
26953;SDS011;14508;50.924;11.600;2022-09-30T00:24:50;4.50;;;3.60;;
26953;SDS011;14508;50.924;11.600;2022-09-30T00:27:17;6.07;;;3.85;;
26953;SDS011;14508;50.924;11.600;2022-09-30T00:29:45;5.95;;;3.45;;
26953;SDS011;14508;50.924;11.600;2022-09-30T00:32:12;6.25;;;2.92;;
26953;SDS011;14508;50.924;11.600;2022-09-30T00:34:40;7.03;;;2.95;;
26953;SDS011;14508;50.924;11.600;2022-09-30T00:37:07;6.13;;;3.63;;
26953;SDS011;14508;50.924;11.600;2022-09-30T00:39:35;5.07;;;3.40;;
26953;SDS011;14508;50.924;11.600;2022-09-30T00:42:03;5.22;;;4.00;;
26953;SDS011;14508;50.924;11.600;2022-09-30T00:44:45;4.63;;;3.60;;
26953;SDS011;14508;50.924;11.600;2022-09-30T00:47:37;7.20;;;3.83;;
26953;SDS011;14508;50.924;11.600;2022-09-30T00:53:07;5.05;;;3.28;;
26953;SDS011;14508;50.924;11.600;2022-09-30T00:55:39;4.32;;;3.00;;
26953;SDS011;14508;50.924;11.600;2022-09-30T00:58:15;6.40;;;3.50;;
26953;SDS011;14508;50.924;11.600;2022-09-30T01:00:45;8.18;;;3.30;;
26953;SDS011;14508;50.924;11.600;2022-09-30T01:03:12;12.32;;;3.50;;
26953;SDS011;14508;50.924;11.600;2022-09-30T01:05:41;5.32;;;3.30;;
26953;SDS011;14508;50.924;11.600;2022-09-30T01:08:08;6.70;;;3.70;;
26953;SDS011;14508;50.924;11.600;2022-09-30T01:10:36;7.13;;;2.95;;
26953;SDS011;14508;50.924;11.600;2022-09-30T01:13:03;4.93;;;3.42;;
26953;SDS011;14508;50.924;11.600;2022-09-30T01:15:37;4.63;;;3.50;;
26953;SDS011;14508;50.924;11.600;2022-09-30T01:18:15;3.83;;;2.90;;
26953;SDS011;14508;50.924;11.600;2022-09-30T01:21:02;4.30;;;3.08;;
26953;SDS011;14508;50.924;11.600;2022-09-30T01:23:55;4.07;;;3.50;;
26953;SDS011;14508;50.924;11.600;2022-09-30T01:26:46;4.68;;;2.83;;
26953;SDS011;14508;50.924;11.600;2022-09-30T01:29:36;7.93;;;3.60;;
26953;SDS011;14508;50.924;11.600;2022-09-30T01:32:39;4.45;;;3.05;;
26953;SDS011;14508;50.924;11.600;2022-09-30T01:35:31;5.80;;;3.30;;
26953;SDS011;14508;50.924;11.600;2022-09-30T01:38:07;4.50;;;2.70;;
26953;SDS011;14508;50.924;11.600;2022-09-30T01:40:40;4.80;;;3.25;;
26953;SDS011;14508;50.924;11.600;2022-09-30T01:43:13;7.25;;;3.50;;
26953;SDS011;14508;50.924;11.600;2022-09-30T01:45:50;5.57;;;3.22;;
26953;SDS011;14508;50.924;11.600;2022-09-30T01:48:25;4.95;;;3.30;;
26953;SDS011;14508;50.924;11.600;2022-09-30T01:51:02;6.75;;;3.72;;
26953;SDS011;14508;50.924;11.600;2022-09-30T01:53:34;5.75;;;3.35;;
26953;SDS011;14508;50.924;11.600;2022-09-30T01:56:05;6.30;;;2.92;;
26953;SDS011;14508;50.924;11.600;2022-09-30T01:58:38;4.63;;;3.42;;
26953;SDS011;14508;50.924;11.600;2022-09-30T02:01:13;5.13;;;3.05;;
26953;SDS011;14508;50.924;11.600;2022-09-30T02:03:49;4.93;;;2.72;;
26953;SDS011;14508;50.924;11.600;2022-09-30T02:06:20;5.45;;;3.22;;
26953;SDS011;14508;50.924;11.600;2022-09-30T02:08:52;9.73;;;3.55;;
26953;SDS011;14508;50.924;11.600;2022-09-30T02:11:22;7.28;;;2.97;;
26953;SDS011;14508;50.924;11.600;2022-09-30T02:13:52;7.20;;;3.53;;
26953;SDS011;14508;50.924;11.600;2022-09-30T02:16:31;4.05;;;3.20;;
26953;SDS011;14508;50.924;11.600;2022-09-30T02:19:07;9.68;;;3.13;;
26953;SDS011;14508;50.924;11.600;2022-09-30T02:21:39;5.63;;;2.80;;
26953;SDS011;14508;50.924;11.600;2022-09-30T02:24:09;3.53;;;2.85;;
26953;SDS011;14508;50.924;11.600;2022-09-30T02:26:41;9.40;;;3.10;;
26953;SDS011;14508;50.924;11.600;2022-09-30T02:29:11;7.80;;;3.55;;
26953;SDS011;14508;50.924;11.600;2022-09-30T02:31:43;6.03;;;3.30;;
26953;SDS011;14508;50.924;11.600;2022-09-30T02:34:17;9.93;;;2.90;;
26953;SDS011;14508;50.924;11.600;2022-09-30T02:36:46;6.25;;;3.05;;
26953;SDS011;14508;50.924;11.600;2022-09-30T02:39:21;5.82;;;3.20;;
26953;SDS011;14508;50.924;11.600;2022-09-30T02:41:53;5.38;;;3.08;;
26953;SDS011;14508;50.924;11.600;2022-09-30T02:44:25;10.48;;;3.42;;
26953;SDS011;14508;50.924;11.600;2022-09-30T02:46:53;5.15;;;3.15;;
26953;SDS011;14508;50.924;11.600;2022-09-30T02:49:28;6.05;;;3.13;;
26953;SDS011;14508;50.924;11.600;2022-09-30T02:52:05;3.75;;;2.45;;
26953;SDS011;14508;50.924;11.600;2022-09-30T02:54:41;5.78;;;3.10;;
26953;SDS011;14508;50.924;11.600;2022-09-30T02:57:16;5.28;;;3.03;;
26953;SDS011;14508;50.924;11.600;2022-09-30T02:59:47;4.38;;;3.05;;
26953;SDS011;14508;50.924;11.600;2022-09-30T03:02:17;5.88;;;3.08;;
26953;SDS011;14508;50.924;11.600;2022-09-30T03:04:46;8.10;;;3.15;;
26953;SDS011;14508;50.924;11.600;2022-09-30T03:07:14;3.85;;;2.88;;
26953;SDS011;14508;50.924;11.600;2022-09-30T03:09:41;8.60;;;3.33;;
26953;SDS011;14508;50.924;11.600;2022-09-30T03:12:10;7.68;;;3.75;;
26953;SDS011;14508;50.924;11.600;2022-09-30T03:14:51;4.65;;;3.15;;
26953;SDS011;14508;50.924;11.600;2022-09-30T03:17:41;6.47;;;3.20;;
26953;SDS011;14508;50.924;11.600;2022-09-30T03:20:35;4.43;;;3.08;;
26953;SDS011;14508;50.924;11.600;2022-09-30T03:23:31;5.68;;;3.03;;
26953;SDS011;14508;50.924;11.600;2022-09-30T03:26:11;9.90;;;3.33;;
26953;SDS011;14508;50.924;11.600;2022-09-30T03:28:45;5.63;;;3.30;;
26953;SDS011;14508;50.924;11.600;2022-09-30T03:31:24;5.88;;;3.28;;
26953;SDS011;14508;50.924;11.600;2022-09-30T03:33:57;5.00;;;3.08;;
26953;SDS011;14508;50.924;11.600;2022-09-30T03:36:33;11.57;;;3.50;;
26953;SDS011;14508;50.924;11.600;2022-09-30T03:39:05;5.93;;;3.63;;
26953;SDS011;14508;50.924;11.600;2022-09-30T03:41:43;6.25;;;3.20;;
26953;SDS011;14508;50.924;11.600;2022-09-30T03:44:17;4.63;;;2.80;;
26953;SDS011;14508;50.924;11.600;2022-09-30T03:46:51;8.25;;;3.42;;
26953;SDS011;14508;50.924;11.600;2022-09-30T03:49:22;7.13;;;3.75;;
26953;SDS011;14508;50.924;11.600;2022-09-30T03:51:52;5.88;;;3.78;;
26953;SDS011;14508;50.924;11.600;2022-09-30T03:54:20;8.38;;;4.82;;
26953;SDS011;14508;50.924;11.600;2022-09-30T03:56:48;10.25;;;5.00;;
26953;SDS011;14508;50.924;11.600;2022-09-30T03:59:16;7.10;;;4.78;;
26953;SDS011;14508;50.924;11.600;2022-09-30T04:01:47;7.13;;;4.63;;
26953;SDS011;14508;50.924;11.600;2022-09-30T04:04:14;8.93;;;5.43;;
26953;SDS011;14508;50.924;11.600;2022-09-30T04:06:42;8.52;;;5.30;;
26953;SDS011;14508;50.924;11.600;2022-09-30T04:09:10;13.25;;;6.97;;
26953;SDS011;14508;50.924;11.600;2022-09-30T04:11:37;18.38;;;8.32;;
26953;SDS011;14508;50.924;11.600;2022-09-30T04:14:04;13.95;;;7.47;;
26953;SDS011;14508;50.924;11.600;2022-09-30T04:16:31;11.80;;;6.07;;
26953;SDS011;14508;50.924;11.600;2022-09-30T04:18:58;10.35;;;5.03;;
26953;SDS011;14508;50.924;11.600;2022-09-30T04:21:25;8.35;;;4.50;;
26953;SDS011;14508;50.924;11.600;2022-09-30T04:23:53;14.00;;;5.60;;
26953;SDS011;14508;50.924;11.600;2022-09-30T04:26:21;10.60;;;4.80;;
26953;SDS011;14508;50.924;11.600;2022-09-30T04:28:48;9.93;;;5.07;;
26953;SDS011;14508;50.924;11.600;2022-09-30T04:31:16;9.30;;;5.07;;
26953;SDS011;14508;50.924;11.600;2022-09-30T04:33:45;10.60;;;5.05;;
26953;SDS011;14508;50.924;11.600;2022-09-30T04:36:12;17.98;;;5.53;;
26953;SDS011;14508;50.924;11.600;2022-09-30T04:38:39;17.10;;;6.22;;
26953;SDS011;14508;50.924;11.600;2022-09-30T04:41:05;12.63;;;5.70;;
26953;SDS011;14508;50.924;11.600;2022-09-30T04:43:35;16.80;;;4.95;;
26953;SDS011;14508;50.924;11.600;2022-09-30T04:46:01;20.30;;;6.25;;
26953;SDS011;14508;50.924;11.600;2022-09-30T04:48:28;9.93;;;5.22;;
26953;SDS011;14508;50.924;11.600;2022-09-30T04:50:56;12.63;;;4.82;;
26953;SDS011;14508;50.924;11.600;2022-09-30T04:53:23;29.65;;;5.93;;
26953;SDS011;14508;50.924;11.600;2022-09-30T04:55:50;7.53;;;4.97;;
26953;SDS011;14508;50.924;11.600;2022-09-30T04:58:23;13.90;;;5.70;;
26953;SDS011;14508;50.924;11.600;2022-09-30T05:00:51;13.07;;;5.18;;
26953;SDS011;14508;50.924;11.600;2022-09-30T05:03:25;10.30;;;5.45;;
26953;SDS011;14508;50.924;11.600;2022-09-30T05:05:52;13.27;;;4.95;;
26953;SDS011;14508;50.924;11.600;2022-09-30T05:08:18;15.10;;;4.45;;
26953;SDS011;14508;50.924;11.600;2022-09-30T05:10:51;9.70;;;4.10;;
26953;SDS011;14508;50.924;11.600;2022-09-30T05:13:19;7.40;;;4.15;;
26953;SDS011;14508;50.924;11.600;2022-09-30T05:15:46;7.43;;;4.55;;
26953;SDS011;14508;50.924;11.600;2022-09-30T05:18:15;14.25;;;4.30;;
26953;SDS011;14508;50.924;11.600;2022-09-30T05:20:42;33.88;;;5.57;;
26953;SDS011;14508;50.924;11.600;2022-09-30T05:23:09;12.70;;;4.05;;
26953;SDS011;14508;50.924;11.600;2022-09-30T05:25:36;8.15;;;4.50;;
26953;SDS011;14508;50.924;11.600;2022-09-30T05:28:02;10.52;;;4.32;;
26953;SDS011;14508;50.924;11.600;2022-09-30T05:30:29;11.35;;;4.90;;
26953;SDS011;14508;50.924;11.600;2022-09-30T05:32:56;8.82;;;4.25;;
26953;SDS011;14508;50.924;11.600;2022-09-30T05:35:24;9.32;;;4.32;;
26953;SDS011;14508;50.924;11.600;2022-09-30T05:37:51;7.45;;;4.00;;
26953;SDS011;14508;50.924;11.600;2022-09-30T05:40:18;9.35;;;3.95;;
26953;SDS011;14508;50.924;11.600;2022-09-30T05:42:44;10.27;;;4.57;;
26953;SDS011;14508;50.924;11.600;2022-09-30T05:45:12;10.32;;;4.75;;
26953;SDS011;14508;50.924;11.600;2022-09-30T05:47:38;11.60;;;5.13;;
26953;SDS011;14508;50.924;11.600;2022-09-30T05:50:06;10.98;;;5.90;;
26953;SDS011;14508;50.924;11.600;2022-09-30T05:52:35;8.93;;;4.55;;
26953;SDS011;14508;50.924;11.600;2022-09-30T05:55:01;9.18;;;4.80;;
26953;SDS011;14508;50.924;11.600;2022-09-30T05:57:29;10.38;;;5.03;;
26953;SDS011;14508;50.924;11.600;2022-09-30T05:59:55;11.68;;;4.95;;
26953;SDS011;14508;50.924;11.600;2022-09-30T06:02:22;11.13;;;5.57;;
26953;SDS011;14508;50.924;11.600;2022-09-30T06:04:49;9.20;;;5.40;;
26953;SDS011;14508;50.924;11.600;2022-09-30T06:07:16;9.27;;;5.22;;
26953;SDS011;14508;50.924;11.600;2022-09-30T06:09:44;15.38;;;5.60;;
26953;SDS011;14508;50.924;11.600;2022-09-30T06:12:11;12.48;;;5.72;;
26953;SDS011;14508;50.924;11.600;2022-09-30T06:14:38;19.40;;;5.53;;
26953;SDS011;14508;50.924;11.600;2022-09-30T06:17:05;13.50;;;5.78;;
26953;SDS011;14508;50.924;11.600;2022-09-30T06:19:32;13.48;;;6.82;;
26953;SDS011;14508;50.924;11.600;2022-09-30T06:21:59;11.70;;;6.35;;
26953;SDS011;14508;50.924;11.600;2022-09-30T06:24:26;40.00;;;20.35;;
26953;SDS011;14508;50.924;11.600;2022-09-30T06:26:54;25.95;;;12.18;;
26953;SDS011;14508;50.924;11.600;2022-09-30T06:29:21;17.58;;;6.68;;
26953;SDS011;14508;50.924;11.600;2022-09-30T06:31:48;10.85;;;6.00;;
26953;SDS011;14508;50.924;11.600;2022-09-30T06:34:15;14.65;;;6.78;;
26953;SDS011;14508;50.924;11.600;2022-09-30T06:36:42;10.65;;;6.22;;
26953;SDS011;14508;50.924;11.600;2022-09-30T06:39:08;13.85;;;6.35;;
26953;SDS011;14508;50.924;11.600;2022-09-30T06:41:35;22.98;;;7.63;;
26953;SDS011;14508;50.924;11.600;2022-09-30T06:44:06;21.02;;;6.85;;
26953;SDS011;14508;50.924;11.600;2022-09-30T06:46:33;30.77;;;10.65;;
26953;SDS011;14508;50.924;11.600;2022-09-30T06:49:00;19.75;;;9.40;;
26953;SDS011;14508;50.924;11.600;2022-09-30T06:51:28;30.45;;;8.73;;
26953;SDS011;14508;50.924;11.600;2022-09-30T06:53:57;23.38;;;8.52;;
26953;SDS011;14508;50.924;11.600;2022-09-30T06:56:24;24.40;;;8.82;;
26953;SDS011;14508;50.924;11.600;2022-09-30T06:58:51;17.75;;;7.95;;
26953;SDS011;14508;50.924;11.600;2022-09-30T07:01:22;12.40;;;6.47;;
26953;SDS011;14508;50.924;11.600;2022-09-30T07:03:49;19.25;;;6.65;;
26953;SDS011;14508;50.924;11.600;2022-09-30T07:06:22;18.48;;;7.50;;
26953;SDS011;14508;50.924;11.600;2022-09-30T07:08:50;19.42;;;8.20;;
26953;SDS011;14508;50.924;11.600;2022-09-30T07:11:17;20.55;;;7.32;;
26953;SDS011;14508;50.924;11.600;2022-09-30T07:13:44;18.95;;;8.18;;
26953;SDS011;14508;50.924;11.600;2022-09-30T07:16:13;16.13;;;6.50;;
26953;SDS011;14508;50.924;11.600;2022-09-30T07:18:43;10.13;;;6.00;;
26953;SDS011;14508;50.924;11.600;2022-09-30T07:21:10;11.88;;;6.05;;
26953;SDS011;14508;50.924;11.600;2022-09-30T07:23:40;35.30;;;6.80;;
26953;SDS011;14508;50.924;11.600;2022-09-30T07:26:12;13.27;;;7.13;;
26953;SDS011;14508;50.924;11.600;2022-09-30T07:28:39;12.95;;;5.47;;
26953;SDS011;14508;50.924;11.600;2022-09-30T07:31:08;14.80;;;7.00;;
26953;SDS011;14508;50.924;11.600;2022-09-30T07:33:37;40.10;;;18.98;;
26953;SDS011;14508;50.924;11.600;2022-09-30T07:36:06;29.77;;;12.40;;
26953;SDS011;14508;50.924;11.600;2022-09-30T07:38:35;15.48;;;7.85;;
26953;SDS011;14508;50.924;11.600;2022-09-30T07:41:04;10.50;;;6.65;;
26953;SDS011;14508;50.924;11.600;2022-09-30T07:43:32;10.30;;;5.55;;
26953;SDS011;14508;50.924;11.600;2022-09-30T07:46:03;19.30;;;12.20;;
26953;SDS011;14508;50.924;11.600;2022-09-30T07:48:31;16.15;;;9.02;;
26953;SDS011;14508;50.924;11.600;2022-09-30T07:51:14;18.10;;;7.65;;
26953;SDS011;14508;50.924;11.600;2022-09-30T07:53:43;15.23;;;6.50;;
26953;SDS011;14508;50.924;11.600;2022-09-30T07:56:12;11.27;;;6.10;;
26953;SDS011;14508;50.924;11.600;2022-09-30T07:58:39;11.77;;;7.05;;
26953;SDS011;14508;50.924;11.600;2022-09-30T08:01:06;12.55;;;6.70;;
26953;SDS011;14508;50.924;11.600;2022-09-30T08:03:33;10.77;;;6.25;;
26953;SDS011;14508;50.924;11.600;2022-09-30T08:06:05;15.93;;;6.75;;
26953;SDS011;14508;50.924;11.600;2022-09-30T08:08:34;14.13;;;6.72;;
26953;SDS011;14508;50.924;11.600;2022-09-30T08:11:03;9.88;;;5.97;;
26953;SDS011;14508;50.924;11.600;2022-09-30T08:13:31;14.27;;;6.30;;
26953;SDS011;14508;50.924;11.600;2022-09-30T08:15:58;14.55;;;6.88;;
26953;SDS011;14508;50.924;11.600;2022-09-30T08:18:25;12.82;;;6.68;;
26953;SDS011;14508;50.924;11.600;2022-09-30T08:20:52;14.63;;;7.40;;
26953;SDS011;14508;50.924;11.600;2022-09-30T08:23:19;11.00;;;6.70;;
26953;SDS011;14508;50.924;11.600;2022-09-30T08:25:48;14.10;;;5.78;;
26953;SDS011;14508;50.924;11.600;2022-09-30T08:28:15;12.55;;;6.57;;
26953;SDS011;14508;50.924;11.600;2022-09-30T08:30:43;10.55;;;6.07;;
26953;SDS011;14508;50.924;11.600;2022-09-30T08:33:10;11.13;;;6.35;;
26953;SDS011;14508;50.924;11.600;2022-09-30T08:35:36;11.52;;;6.80;;
26953;SDS011;14508;50.924;11.600;2022-09-30T08:38:03;12.38;;;6.15;;
26953;SDS011;14508;50.924;11.600;2022-09-30T08:40:31;11.90;;;7.00;;
26953;SDS011;14508;50.924;11.600;2022-09-30T08:45:54;13.38;;;5.95;;
26953;SDS011;14508;50.924;11.600;2022-09-30T08:48:36;10.75;;;6.63;;
26953;SDS011;14508;50.924;11.600;2022-09-30T08:51:16;12.23;;;6.18;;
26953;SDS011;14508;50.924;11.600;2022-09-30T08:53:53;9.30;;;6.15;;
26953;SDS011;14508;50.924;11.600;2022-09-30T08:56:22;16.02;;;5.82;;
26953;SDS011;14508;50.924;11.600;2022-09-30T08:58:54;10.30;;;6.10;;
26953;SDS011;14508;50.924;11.600;2022-09-30T09:01:26;8.48;;;6.05;;
26953;SDS011;14508;50.924;11.600;2022-09-30T09:03:57;10.02;;;6.53;;
26953;SDS011;14508;50.924;11.600;2022-09-30T09:06:26;8.48;;;5.78;;
26953;SDS011;14508;50.924;11.600;2022-09-30T09:09:02;13.38;;;6.30;;
26953;SDS011;14508;50.924;11.600;2022-09-30T09:11:46;15.15;;;6.78;;
26953;SDS011;14508;50.924;11.600;2022-09-30T09:14:27;11.35;;;6.68;;
26953;SDS011;14508;50.924;11.600;2022-09-30T09:17:06;14.45;;;7.97;;
26953;SDS011;14508;50.924;11.600;2022-09-30T09:19:46;11.85;;;6.72;;
26953;SDS011;14508;50.924;11.600;2022-09-30T09:22:19;11.80;;;6.53;;
26953;SDS011;14508;50.924;11.600;2022-09-30T09:24:49;13.07;;;6.80;;
26953;SDS011;14508;50.924;11.600;2022-09-30T09:27:20;9.77;;;5.60;;
26953;SDS011;14508;50.924;11.600;2022-09-30T09:29:55;12.05;;;5.90;;
26953;SDS011;14508;50.924;11.600;2022-09-30T09:32:30;13.35;;;5.68;;
26953;SDS011;14508;50.924;11.600;2022-09-30T09:34:58;12.02;;;5.40;;
26953;SDS011;14508;50.924;11.600;2022-09-30T09:37:29;14.57;;;6.00;;
26953;SDS011;14508;50.924;11.600;2022-09-30T09:40:24;7.82;;;4.90;;
26953;SDS011;14508;50.924;11.600;2022-09-30T09:43:03;8.48;;;4.22;;
26953;SDS011;14508;50.924;11.600;2022-09-30T09:45:39;8.20;;;4.10;;
26953;SDS011;14508;50.924;11.600;2022-09-30T09:48:11;10.70;;;3.85;;
26953;SDS011;14508;50.924;11.600;2022-09-30T09:50:41;5.22;;;3.40;;
26953;SDS011;14508;50.924;11.600;2022-09-30T09:53:21;5.43;;;3.78;;
26953;SDS011;14508;50.924;11.600;2022-09-30T09:56:13;7.32;;;3.40;;
26953;SDS011;14508;50.924;11.600;2022-09-30T10:01:35;7.85;;;3.67;;
26953;SDS011;14508;50.924;11.600;2022-09-30T10:04:11;5.15;;;3.03;;
26953;SDS011;14508;50.924;11.600;2022-09-30T10:06:48;5.68;;;2.88;;
26953;SDS011;14508;50.924;11.600;2022-09-30T10:09:23;5.28;;;3.03;;
26953;SDS011;14508;50.924;11.600;2022-09-30T10:14:51;7.15;;;3.08;;
26953;SDS011;14508;50.924;11.600;2022-09-30T10:17:44;7.80;;;3.95;;
26953;SDS011;14508;50.924;11.600;2022-09-30T10:20:18;10.02;;;4.70;;
26953;SDS011;14508;50.924;11.600;2022-09-30T10:22:49;9.50;;;4.97;;
26953;SDS011;14508;50.924;11.600;2022-09-30T10:25:26;11.02;;;4.53;;
26953;SDS011;14508;50.924;11.600;2022-09-30T10:27:54;11.25;;;3.60;;
26953;SDS011;14508;50.924;11.600;2022-09-30T10:30:29;6.72;;;3.78;;
26953;SDS011;14508;50.924;11.600;2022-09-30T10:33:15;6.22;;;3.25;;
26953;SDS011;14508;50.924;11.600;2022-09-30T10:35:51;4.32;;;2.47;;
26953;SDS011;14508;50.924;11.600;2022-09-30T10:38:21;6.03;;;3.15;;
26953;SDS011;14508;50.924;11.600;2022-09-30T10:40:53;6.85;;;2.80;;
26953;SDS011;14508;50.924;11.600;2022-09-30T10:43:22;7.95;;;2.50;;
26953;SDS011;14508;50.924;11.600;2022-09-30T10:45:52;7.13;;;2.50;;
26953;SDS011;14508;50.924;11.600;2022-09-30T10:48:21;3.33;;;2.17;;
26953;SDS011;14508;50.924;11.600;2022-09-30T10:50:50;5.45;;;1.83;;
26953;SDS011;14508;50.924;11.600;2022-09-30T10:53:20;3.28;;;1.80;;
26953;SDS011;14508;50.924;11.600;2022-09-30T10:55:49;2.47;;;1.80;;
26953;SDS011;14508;50.924;11.600;2022-09-30T10:58:22;4.38;;;1.75;;
26953;SDS011;14508;50.924;11.600;2022-09-30T11:00:56;4.95;;;1.98;;
26953;SDS011;14508;50.924;11.600;2022-09-30T11:03:29;3.30;;;2.50;;
26953;SDS011;14508;50.924;11.600;2022-09-30T11:06:01;4.40;;;2.08;;
26953;SDS011;14508;50.924;11.600;2022-09-30T11:08:32;2.90;;;2.08;;
26953;SDS011;14508;50.924;11.600;2022-09-30T11:11:06;2.78;;;2.10;;
26953;SDS011;14508;50.924;11.600;2022-09-30T11:13:39;7.93;;;2.47;;
26953;SDS011;14508;50.924;11.600;2022-09-30T11:16:13;6.18;;;2.10;;
26953;SDS011;14508;50.924;11.600;2022-09-30T11:18:46;4.43;;;1.92;;
26953;SDS011;14508;50.924;11.600;2022-09-30T11:23:47;6.00;;;1.80;;
26953;SDS011;14508;50.924;11.600;2022-09-30T11:26:21;4.63;;;2.00;;
26953;SDS011;14508;50.924;11.600;2022-09-30T11:29:08;2.55;;;2.22;;
26953;SDS011;14508;50.924;11.600;2022-09-30T11:31:47;3.80;;;1.90;;
26953;SDS011;14508;50.924;11.600;2022-09-30T11:34:27;8.77;;;2.20;;
26953;SDS011;14508;50.924;11.600;2022-09-30T11:37:03;2.75;;;1.67;;
26953;SDS011;14508;50.924;11.600;2022-09-30T11:39:47;3.53;;;1.80;;
26953;SDS011;14508;50.924;11.600;2022-09-30T11:42:26;6.85;;;1.58;;
26953;SDS011;14508;50.924;11.600;2022-09-30T11:45:02;3.30;;;1.75;;
26953;SDS011;14508;50.924;11.600;2022-09-30T11:47:43;4.97;;;1.92;;
26953;SDS011;14508;50.924;11.600;2022-09-30T11:50:27;3.03;;;2.28;;
26953;SDS011;14508;50.924;11.600;2022-09-30T11:53:07;5.07;;;1.98;;
26953;SDS011;14508;50.924;11.600;2022-09-30T11:55:50;2.85;;;2.10;;
26953;SDS011;14508;50.924;11.600;2022-09-30T11:58:28;6.68;;;1.88;;
26953;SDS011;14508;50.924;11.600;2022-09-30T12:01:04;4.22;;;2.47;;
26953;SDS011;14508;50.924;11.600;2022-09-30T12:03:39;2.47;;;1.75;;
26953;SDS011;14508;50.924;11.600;2022-09-30T12:06:12;4.00;;;1.92;;
26953;SDS011;14508;50.924;11.600;2022-09-30T12:08:45;4.60;;;1.92;;
26953;SDS011;14508;50.924;11.600;2022-09-30T12:11:16;4.38;;;1.95;;
26953;SDS011;14508;50.924;11.600;2022-09-30T12:13:47;2.88;;;1.85;;
26953;SDS011;14508;50.924;11.600;2022-09-30T12:16:19;5.18;;;2.75;;
26953;SDS011;14508;50.924;11.600;2022-09-30T12:18:50;6.18;;;2.10;;
26953;SDS011;14508;50.924;11.600;2022-09-30T12:21:23;9.30;;;2.60;;
26953;SDS011;14508;50.924;11.600;2022-09-30T12:23:55;8.45;;;2.05;;
26953;SDS011;14508;50.924;11.600;2022-09-30T12:26:27;4.05;;;1.90;;
26953;SDS011;14508;50.924;11.600;2022-09-30T12:28:56;9.00;;;2.00;;
26953;SDS011;14508;50.924;11.600;2022-09-30T12:31:54;2.05;;;1.65;;
26953;SDS011;14508;50.924;11.600;2022-09-30T12:34:39;4.32;;;2.00;;
26953;SDS011;14508;50.924;11.600;2022-09-30T12:37:21;5.05;;;1.58;;
26953;SDS011;14508;50.924;11.600;2022-09-30T12:40:02;3.13;;;1.50;;
26953;SDS011;14508;50.924;11.600;2022-09-30T12:42:50;4.50;;;1.63;;
26953;SDS011;14508;50.924;11.600;2022-09-30T12:45:32;6.70;;;1.60;;
26953;SDS011;14508;50.924;11.600;2022-09-30T12:48:19;1.60;;;1.50;;
26953;SDS011;14508;50.924;11.600;2022-09-30T12:50:49;6.18;;;2.20;;
26953;SDS011;14508;50.924;11.600;2022-09-30T12:53:21;3.78;;;1.27;;
26953;SDS011;14508;50.924;11.600;2022-09-30T12:55:51;7.55;;;1.80;;
26953;SDS011;14508;50.924;11.600;2022-09-30T12:58:19;4.43;;;1.50;;
26953;SDS011;14508;50.924;11.600;2022-09-30T13:00:58;4.85;;;1.25;;
26953;SDS011;14508;50.924;11.600;2022-09-30T13:03:42;5.30;;;1.75;;
26953;SDS011;14508;50.924;11.600;2022-09-30T13:06:12;5.00;;;1.63;;
26953;SDS011;14508;50.924;11.600;2022-09-30T13:08:47;5.50;;;1.90;;
26953;SDS011;14508;50.924;11.600;2022-09-30T13:11:36;1.85;;;1.58;;
26953;SDS011;14508;50.924;11.600;2022-09-30T13:14:16;5.00;;;1.33;;
26953;SDS011;14508;50.924;11.600;2022-09-30T13:17:00;3.28;;;1.42;;
26953;SDS011;14508;50.924;11.600;2022-09-30T13:19:51;4.65;;;1.52;;
26953;SDS011;14508;50.924;11.600;2022-09-30T13:25:24;4.63;;;1.65;;
26953;SDS011;14508;50.924;11.600;2022-09-30T13:27:52;3.00;;;1.55;;
26953;SDS011;14508;50.924;11.600;2022-09-30T13:31:00;9.55;;;2.03;;
26953;SDS011;14508;50.924;11.600;2022-09-30T13:33:42;3.50;;;1.65;;
26953;SDS011;14508;50.924;11.600;2022-09-30T13:36:27;1.55;;;1.20;;
26953;SDS011;14508;50.924;11.600;2022-09-30T13:41:53;1.63;;;1.30;;
26953;SDS011;14508;50.924;11.600;2022-09-30T13:44:30;4.75;;;1.60;;
26953;SDS011;14508;50.924;11.600;2022-09-30T13:47:04;6.00;;;2.70;;
26953;SDS011;14508;50.924;11.600;2022-09-30T13:49:41;3.20;;;2.53;;
26953;SDS011;14508;50.924;11.600;2022-09-30T13:54:45;10.05;;;3.15;;
26953;SDS011;14508;50.924;11.600;2022-09-30T13:57:17;6.00;;;2.45;;
26953;SDS011;14508;50.924;11.600;2022-09-30T13:59:54;3.47;;;2.20;;
26953;SDS011;14508;50.924;11.600;2022-09-30T14:02:41;10.23;;;2.47;;
26953;SDS011;14508;50.924;11.600;2022-09-30T14:05:41;6.88;;;3.70;;
26953;SDS011;14508;50.924;11.600;2022-09-30T14:11:19;5.97;;;2.03;;
26953;SDS011;14508;50.924;11.600;2022-09-30T14:14:10;3.20;;;1.48;;
26953;SDS011;14508;50.924;11.600;2022-09-30T14:17:26;5.10;;;2.00;;
26953;SDS011;14508;50.924;11.600;2022-09-30T14:20:19;2.10;;;1.73;;
26953;SDS011;14508;50.924;11.600;2022-09-30T14:22:54;3.67;;;1.67;;
26953;SDS011;14508;50.924;11.600;2022-09-30T14:25:23;7.25;;;2.45;;
26953;SDS011;14508;50.924;11.600;2022-09-30T14:27:56;6.68;;;1.98;;
26953;SDS011;14508;50.924;11.600;2022-09-30T14:30:30;6.38;;;1.98;;
26953;SDS011;14508;50.924;11.600;2022-09-30T14:33:07;2.65;;;1.90;;
26953;SDS011;14508;50.924;11.600;2022-09-30T14:35:36;9.00;;;2.92;;
26953;SDS011;14508;50.924;11.600;2022-09-30T14:38:06;8.70;;;2.40;;
26953;SDS011;14508;50.924;11.600;2022-09-30T14:40:38;3.50;;;1.90;;
26953;SDS011;14508;50.924;11.600;2022-09-30T14:43:11;13.55;;;2.78;;
26953;SDS011;14508;50.924;11.600;2022-09-30T14:45:44;5.97;;;2.37;;
26953;SDS011;14508;50.924;11.600;2022-09-30T14:48:17;2.90;;;1.70;;
26953;SDS011;14508;50.924;11.600;2022-09-30T14:50:49;5.55;;;1.98;;
26953;SDS011;14508;50.924;11.600;2022-09-30T14:53:24;2.53;;;1.50;;
26953;SDS011;14508;50.924;11.600;2022-09-30T14:55:52;3.85;;;1.88;;
26953;SDS011;14508;50.924;11.600;2022-09-30T14:58:20;2.92;;;1.58;;
26953;SDS011;14508;50.924;11.600;2022-09-30T15:00:57;2.40;;;1.48;;
26953;SDS011;14508;50.924;11.600;2022-09-30T15:05:54;2.17;;;1.10;;
26953;SDS011;14508;50.924;11.600;2022-09-30T15:08:25;3.97;;;1.52;;
26953;SDS011;14508;50.924;11.600;2022-09-30T15:10:52;3.08;;;1.65;;
26953;SDS011;14508;50.924;11.600;2022-09-30T15:13:20;2.70;;;1.67;;
26953;SDS011;14508;50.924;11.600;2022-09-30T15:15:49;3.85;;;1.80;;
26953;SDS011;14508;50.924;11.600;2022-09-30T15:18:31;2.80;;;1.60;;
26953;SDS011;14508;50.924;11.600;2022-09-30T15:21:03;4.28;;;1.77;;
26953;SDS011;14508;50.924;11.600;2022-09-30T15:23:34;4.35;;;1.80;;
26953;SDS011;14508;50.924;11.600;2022-09-30T15:26:03;4.18;;;2.03;;
26953;SDS011;14508;50.924;11.600;2022-09-30T15:28:31;4.20;;;2.20;;
26953;SDS011;14508;50.924;11.600;2022-09-30T15:30:59;5.25;;;1.95;;